<?xml version="1.0" encoding="UTF-8" standalone="no" ?>
<gpx xmlns="http://www.topografix.com/GPX/1/1" xmlns:xsi="http://www.w3.org/2001/XMLSchema-instance" xsi:schemaLocation="http://www.topografix.com/GPX/1/1 http://www.topografix.com/GPX/1/1/gpx.xsd" version="1.1" creator="VisuGPX - https://www.visugpx.com">
  <metadata>
    <name>Marche Lucas 8km 2025</name>
  </metadata>
  <trk>
    <name><![CDATA[7,9km Lucas 2025-20492302]]></name>
    <trkseg>
      <trkpt lat="45.61775" lon="4.42117">
        <ele>469</ele>
        <time>2025-02-03T10:02:50Z</time>
      </trkpt>
      <trkpt lat="45.61761" lon="4.4212">
        <ele>468</ele>
        <time>2025-02-03T10:03:09Z</time>
      </trkpt>
      <trkpt lat="45.6175" lon="4.42056">
        <ele>468</ele>
        <time>2025-02-03T10:04:10Z</time>
      </trkpt>
      <trkpt lat="45.61752" lon="4.4204">
        <ele>469</ele>
        <time>2025-02-03T10:04:26Z</time>
      </trkpt>
      <trkpt lat="45.61745" lon="4.42021">
        <ele>469</ele>
        <time>2025-02-03T10:04:46Z</time>
      </trkpt>
      <trkpt lat="45.61742" lon="4.42001">
        <ele>469</ele>
        <time>2025-02-03T10:05:05Z</time>
      </trkpt>
      <trkpt lat="45.61745" lon="4.41981">
        <ele>469</ele>
        <time>2025-02-03T10:05:24Z</time>
      </trkpt>
      <trkpt lat="45.61666" lon="4.41911">
        <ele>469</ele>
        <time>2025-02-03T10:07:28Z</time>
      </trkpt>
      <trkpt lat="45.61655" lon="4.41884">
        <ele>469</ele>
        <time>2025-02-03T10:07:57Z</time>
      </trkpt>
      <trkpt lat="45.61638" lon="4.41828">
        <ele>468</ele>
        <time>2025-02-03T10:08:54Z</time>
      </trkpt>
      <trkpt lat="45.61617" lon="4.41699">
        <ele>465</ele>
        <time>2025-02-03T10:10:58Z</time>
      </trkpt>
      <trkpt lat="45.616" lon="4.41622">
        <ele>465</ele>
        <time>2025-02-03T10:12:13Z</time>
      </trkpt>
      <trkpt lat="45.6159" lon="4.41498">
        <ele>467</ele>
        <time>2025-02-03T10:14:09Z</time>
      </trkpt>
      <trkpt lat="45.61584" lon="4.41484">
        <ele>467</ele>
        <time>2025-02-03T10:14:25Z</time>
      </trkpt>
      <trkpt lat="45.61561" lon="4.41455">
        <ele>466</ele>
        <time>2025-02-03T10:15:06Z</time>
      </trkpt>
      <trkpt lat="45.61549" lon="4.41435">
        <ele>466</ele>
        <time>2025-02-03T10:15:30Z</time>
      </trkpt>
      <trkpt lat="45.6154" lon="4.41424">
        <ele>466</ele>
        <time>2025-02-03T10:15:46Z</time>
      </trkpt>
      <trkpt lat="45.61537" lon="4.41422">
        <ele>466</ele>
        <time>2025-02-03T10:15:51Z</time>
      </trkpt>
      <trkpt lat="45.61532" lon="4.4142">
        <ele>466</ele>
        <time>2025-02-03T10:15:57Z</time>
      </trkpt>
      <trkpt lat="45.61539" lon="4.41412">
        <ele>466</ele>
        <time>2025-02-03T10:16:09Z</time>
      </trkpt>
      <trkpt lat="45.61544" lon="4.41388">
        <ele>467</ele>
        <time>2025-02-03T10:16:33Z</time>
      </trkpt>
      <trkpt lat="45.61551" lon="4.41285">
        <ele>469</ele>
        <time>2025-02-03T10:18:09Z</time>
      </trkpt>
      <trkpt lat="45.61548" lon="4.41241">
        <ele>470</ele>
        <time>2025-02-03T10:18:51Z</time>
      </trkpt>
      <trkpt lat="45.61554" lon="4.412">
        <ele>472</ele>
        <time>2025-02-03T10:19:30Z</time>
      </trkpt>
      <trkpt lat="45.61591" lon="4.41087">
        <ele>478</ele>
        <time>2025-02-03T10:21:26Z</time>
      </trkpt>
      <trkpt lat="45.6163" lon="4.41091">
        <ele>481</ele>
        <time>2025-02-03T10:22:18Z</time>
      </trkpt>
      <trkpt lat="45.6165" lon="4.41083">
        <ele>483</ele>
        <time>2025-02-03T10:22:46Z</time>
      </trkpt>
      <trkpt lat="45.6166" lon="4.41084">
        <ele>484</ele>
        <time>2025-02-03T10:22:59Z</time>
      </trkpt>
      <trkpt lat="45.61669" lon="4.41086">
        <ele>485</ele>
        <time>2025-02-03T10:23:12Z</time>
      </trkpt>
      <trkpt lat="45.61677" lon="4.41098">
        <ele>486</ele>
        <time>2025-02-03T10:23:27Z</time>
      </trkpt>
      <trkpt lat="45.61691" lon="4.41094">
        <ele>488</ele>
        <time>2025-02-03T10:23:46Z</time>
      </trkpt>
      <trkpt lat="45.61704" lon="4.41094">
        <ele>489</ele>
        <time>2025-02-03T10:24:04Z</time>
      </trkpt>
      <trkpt lat="45.61716" lon="4.41105">
        <ele>491</ele>
        <time>2025-02-03T10:24:23Z</time>
      </trkpt>
      <trkpt lat="45.61721" lon="4.41109">
        <ele>492</ele>
        <time>2025-02-03T10:24:30Z</time>
      </trkpt>
      <trkpt lat="45.61739" lon="4.41121">
        <ele>494</ele>
        <time>2025-02-03T10:24:57Z</time>
      </trkpt>
      <trkpt lat="45.61753" lon="4.41127">
        <ele>497</ele>
        <time>2025-02-03T10:25:16Z</time>
      </trkpt>
      <trkpt lat="45.61774" lon="4.41124">
        <ele>500</ele>
        <time>2025-02-03T10:25:44Z</time>
      </trkpt>
      <trkpt lat="45.6179" lon="4.41115">
        <ele>502</ele>
        <time>2025-02-03T10:26:07Z</time>
      </trkpt>
      <trkpt lat="45.61817" lon="4.41102">
        <ele>506</ele>
        <time>2025-02-03T10:26:45Z</time>
      </trkpt>
      <trkpt lat="45.61835" lon="4.411">
        <ele>509</ele>
        <time>2025-02-03T10:27:09Z</time>
      </trkpt>
      <trkpt lat="45.61864" lon="4.41094">
        <ele>512</ele>
        <time>2025-02-03T10:27:49Z</time>
      </trkpt>
      <trkpt lat="45.61873" lon="4.41088">
        <ele>513</ele>
        <time>2025-02-03T10:28:02Z</time>
      </trkpt>
      <trkpt lat="45.61882" lon="4.41087">
        <ele>514</ele>
        <time>2025-02-03T10:28:14Z</time>
      </trkpt>
      <trkpt lat="45.61908" lon="4.4105">
        <ele>515</ele>
        <time>2025-02-03T10:29:03Z</time>
      </trkpt>
      <trkpt lat="45.61911" lon="4.41051">
        <ele>515</ele>
        <time>2025-02-03T10:29:07Z</time>
      </trkpt>
      <trkpt lat="45.61908" lon="4.4105">
        <ele>515</ele>
        <time>2025-02-03T10:29:11Z</time>
      </trkpt>
      <trkpt lat="45.61925" lon="4.41033">
        <ele>516</ele>
        <time>2025-02-03T10:29:39Z</time>
      </trkpt>
      <trkpt lat="45.61944" lon="4.40996">
        <ele>516</ele>
        <time>2025-02-03T10:30:22Z</time>
      </trkpt>
      <trkpt lat="45.61948" lon="4.40951">
        <ele>519</ele>
        <time>2025-02-03T10:31:04Z</time>
      </trkpt>
      <trkpt lat="45.61952" lon="4.4087">
        <ele>524</ele>
        <time>2025-02-03T10:32:20Z</time>
      </trkpt>
      <trkpt lat="45.61951" lon="4.40827">
        <ele>526</ele>
        <time>2025-02-03T10:33:00Z</time>
      </trkpt>
      <trkpt lat="45.61959" lon="4.40793">
        <ele>528</ele>
        <time>2025-02-03T10:33:33Z</time>
      </trkpt>
      <trkpt lat="45.61976" lon="4.40752">
        <ele>532</ele>
        <time>2025-02-03T10:34:18Z</time>
      </trkpt>
      <trkpt lat="45.62002" lon="4.40702">
        <ele>536</ele>
        <time>2025-02-03T10:35:16Z</time>
      </trkpt>
      <trkpt lat="45.62015" lon="4.40647">
        <ele>536</ele>
        <time>2025-02-03T10:36:10Z</time>
      </trkpt>
      <trkpt lat="45.62016" lon="4.40634">
        <ele>536</ele>
        <time>2025-02-03T10:36:22Z</time>
      </trkpt>
      <trkpt lat="45.62014" lon="4.40592">
        <ele>537</ele>
        <time>2025-02-03T10:37:02Z</time>
      </trkpt>
      <trkpt lat="45.62012" lon="4.40546">
        <ele>539</ele>
        <time>2025-02-03T10:37:45Z</time>
      </trkpt>
      <trkpt lat="45.62012" lon="4.40503">
        <ele>540</ele>
        <time>2025-02-03T10:38:25Z</time>
      </trkpt>
      <trkpt lat="45.62014" lon="4.40484">
        <ele>540</ele>
        <time>2025-02-03T10:38:43Z</time>
      </trkpt>
      <trkpt lat="45.62019" lon="4.40467">
        <ele>540</ele>
        <time>2025-02-03T10:39:00Z</time>
      </trkpt>
      <trkpt lat="45.6203" lon="4.40437">
        <ele>539</ele>
        <time>2025-02-03T10:39:32Z</time>
      </trkpt>
      <trkpt lat="45.62053" lon="4.40385">
        <ele>539</ele>
        <time>2025-02-03T10:40:29Z</time>
      </trkpt>
      <trkpt lat="45.62072" lon="4.40332">
        <ele>538</ele>
        <time>2025-02-03T10:41:25Z</time>
      </trkpt>
      <trkpt lat="45.6208" lon="4.40315">
        <ele>538</ele>
        <time>2025-02-03T10:41:44Z</time>
      </trkpt>
      <trkpt lat="45.62082" lon="4.40321">
        <ele>538</ele>
        <time>2025-02-03T10:41:50Z</time>
      </trkpt>
      <trkpt lat="45.6208" lon="4.40315">
        <ele>538</ele>
        <time>2025-02-03T10:41:56Z</time>
      </trkpt>
      <trkpt lat="45.6212" lon="4.40264">
        <ele>535</ele>
        <time>2025-02-03T10:43:08Z</time>
      </trkpt>
      <trkpt lat="45.62161" lon="4.40208">
        <ele>532</ele>
        <time>2025-02-03T10:44:23Z</time>
      </trkpt>
      <trkpt lat="45.62173" lon="4.40182">
        <ele>531</ele>
        <time>2025-02-03T10:44:52Z</time>
      </trkpt>
      <trkpt lat="45.62176" lon="4.4017">
        <ele>531</ele>
        <time>2025-02-03T10:45:04Z</time>
      </trkpt>
      <trkpt lat="45.62174" lon="4.401">
        <ele>526</ele>
        <time>2025-02-03T10:46:10Z</time>
      </trkpt>
      <trkpt lat="45.62182" lon="4.40068">
        <ele>524</ele>
        <time>2025-02-03T10:46:41Z</time>
      </trkpt>
      <trkpt lat="45.62199" lon="4.4003">
        <ele>522</ele>
        <time>2025-02-03T10:47:23Z</time>
      </trkpt>
      <trkpt lat="45.62205" lon="4.40009">
        <ele>521</ele>
        <time>2025-02-03T10:47:45Z</time>
      </trkpt>
      <trkpt lat="45.6221" lon="4.39991">
        <ele>521</ele>
        <time>2025-02-03T10:48:03Z</time>
      </trkpt>
      <trkpt lat="45.62216" lon="4.39958">
        <ele>523</ele>
        <time>2025-02-03T10:48:34Z</time>
      </trkpt>
      <trkpt lat="45.62214" lon="4.39952">
        <ele>523</ele>
        <time>2025-02-03T10:48:41Z</time>
      </trkpt>
      <trkpt lat="45.62216" lon="4.39958">
        <ele>523</ele>
        <time>2025-02-03T10:48:47Z</time>
      </trkpt>
      <trkpt lat="45.62226" lon="4.39949">
        <ele>524</ele>
        <time>2025-02-03T10:49:03Z</time>
      </trkpt>
      <trkpt lat="45.62247" lon="4.39943">
        <ele>525</ele>
        <time>2025-02-03T10:49:31Z</time>
      </trkpt>
      <trkpt lat="45.62273" lon="4.39928">
        <ele>527</ele>
        <time>2025-02-03T10:50:09Z</time>
      </trkpt>
      <trkpt lat="45.623" lon="4.39904">
        <ele>529</ele>
        <time>2025-02-03T10:50:51Z</time>
      </trkpt>
      <trkpt lat="45.62323" lon="4.3988">
        <ele>531</ele>
        <time>2025-02-03T10:51:29Z</time>
      </trkpt>
      <trkpt lat="45.62353" lon="4.39844">
        <ele>532</ele>
        <time>2025-02-03T10:52:21Z</time>
      </trkpt>
      <trkpt lat="45.62375" lon="4.39818">
        <ele>535</ele>
        <time>2025-02-03T10:52:59Z</time>
      </trkpt>
      <trkpt lat="45.62394" lon="4.39791">
        <ele>537</ele>
        <time>2025-02-03T10:53:35Z</time>
      </trkpt>
      <trkpt lat="45.62409" lon="4.39764">
        <ele>539</ele>
        <time>2025-02-03T10:54:07Z</time>
      </trkpt>
      <trkpt lat="45.62421" lon="4.39738">
        <ele>541</ele>
        <time>2025-02-03T10:54:36Z</time>
      </trkpt>
      <trkpt lat="45.62428" lon="4.39716">
        <ele>543</ele>
        <time>2025-02-03T10:54:59Z</time>
      </trkpt>
      <trkpt lat="45.62441" lon="4.39694">
        <ele>545</ele>
        <time>2025-02-03T10:55:26Z</time>
      </trkpt>
      <trkpt lat="45.62482" lon="4.39639">
        <ele>549</ele>
        <time>2025-02-03T10:56:41Z</time>
      </trkpt>
      <trkpt lat="45.62446" lon="4.39524">
        <ele>556</ele>
        <time>2025-02-03T10:58:38Z</time>
      </trkpt>
      <trkpt lat="45.62434" lon="4.39295">
        <ele>570</ele>
        <time>2025-02-03T11:02:13Z</time>
      </trkpt>
      <trkpt lat="45.62444" lon="4.38972">
        <ele>566</ele>
        <time>2025-02-03T11:07:15Z</time>
      </trkpt>
      <trkpt lat="45.62492" lon="4.38987">
        <ele>567</ele>
        <time>2025-02-03T11:08:20Z</time>
      </trkpt>
      <trkpt lat="45.62516" lon="4.39">
        <ele>568</ele>
        <time>2025-02-03T11:08:54Z</time>
      </trkpt>
      <trkpt lat="45.62554" lon="4.39023">
        <ele>567</ele>
        <time>2025-02-03T11:09:49Z</time>
      </trkpt>
      <trkpt lat="45.62612" lon="4.39069">
        <ele>569</ele>
        <time>2025-02-03T11:11:18Z</time>
      </trkpt>
      <trkpt lat="45.62622" lon="4.39072">
        <ele>569</ele>
        <time>2025-02-03T11:11:32Z</time>
      </trkpt>
      <trkpt lat="45.62634" lon="4.39071">
        <ele>570</ele>
        <time>2025-02-03T11:11:48Z</time>
      </trkpt>
      <trkpt lat="45.62665" lon="4.39061">
        <ele>570</ele>
        <time>2025-02-03T11:12:30Z</time>
      </trkpt>
      <trkpt lat="45.62693" lon="4.39043">
        <ele>572</ele>
        <time>2025-02-03T11:13:11Z</time>
      </trkpt>
      <trkpt lat="45.62721" lon="4.39018">
        <ele>574</ele>
        <time>2025-02-03T11:13:55Z</time>
      </trkpt>
      <trkpt lat="45.62756" lon="4.38993">
        <ele>576</ele>
        <time>2025-02-03T11:14:47Z</time>
      </trkpt>
      <trkpt lat="45.62783" lon="4.38975">
        <ele>578</ele>
        <time>2025-02-03T11:15:27Z</time>
      </trkpt>
      <trkpt lat="45.62795" lon="4.38974">
        <ele>578</ele>
        <time>2025-02-03T11:15:43Z</time>
      </trkpt>
      <trkpt lat="45.62817" lon="4.38977">
        <ele>579</ele>
        <time>2025-02-03T11:16:13Z</time>
      </trkpt>
      <trkpt lat="45.62823" lon="4.3898">
        <ele>580</ele>
        <time>2025-02-03T11:16:21Z</time>
      </trkpt>
      <trkpt lat="45.62829" lon="4.38984">
        <ele>580</ele>
        <time>2025-02-03T11:16:30Z</time>
      </trkpt>
      <trkpt lat="45.62851" lon="4.38993">
        <ele>582</ele>
        <time>2025-02-03T11:17:00Z</time>
      </trkpt>
      <trkpt lat="45.62953" lon="4.38994">
        <ele>590</ele>
        <time>2025-02-03T11:19:16Z</time>
      </trkpt>
      <trkpt lat="45.62984" lon="4.39003">
        <ele>592</ele>
        <time>2025-02-03T11:19:59Z</time>
      </trkpt>
      <trkpt lat="45.6301" lon="4.3901">
        <ele>593</ele>
        <time>2025-02-03T11:20:34Z</time>
      </trkpt>
      <trkpt lat="45.6304" lon="4.3903">
        <ele>593</ele>
        <time>2025-02-03T11:21:18Z</time>
      </trkpt>
      <trkpt lat="45.63066" lon="4.39051">
        <ele>593</ele>
        <time>2025-02-03T11:21:58Z</time>
      </trkpt>
      <trkpt lat="45.63082" lon="4.39061">
        <ele>593</ele>
        <time>2025-02-03T11:22:21Z</time>
      </trkpt>
      <trkpt lat="45.63107" lon="4.39075">
        <ele>594</ele>
        <time>2025-02-03T11:22:57Z</time>
      </trkpt>
      <trkpt lat="45.63121" lon="4.39082">
        <ele>594</ele>
        <time>2025-02-03T11:23:17Z</time>
      </trkpt>
      <trkpt lat="45.63132" lon="4.39082">
        <ele>594</ele>
        <time>2025-02-03T11:23:32Z</time>
      </trkpt>
      <trkpt lat="45.63141" lon="4.39079">
        <ele>594</ele>
        <time>2025-02-03T11:23:44Z</time>
      </trkpt>
      <trkpt lat="45.63144" lon="4.39074">
        <ele>594</ele>
        <time>2025-02-03T11:23:50Z</time>
      </trkpt>
      <trkpt lat="45.63165" lon="4.39042">
        <ele>595</ele>
        <time>2025-02-03T11:24:31Z</time>
      </trkpt>
      <trkpt lat="45.63176" lon="4.39058">
        <ele>595</ele>
        <time>2025-02-03T11:24:52Z</time>
      </trkpt>
      <trkpt lat="45.63204" lon="4.39024">
        <ele>597</ele>
        <time>2025-02-03T11:25:41Z</time>
      </trkpt>
      <trkpt lat="45.63229" lon="4.39009">
        <ele>599</ele>
        <time>2025-02-03T11:26:17Z</time>
      </trkpt>
      <trkpt lat="45.63236" lon="4.39004">
        <ele>599</ele>
        <time>2025-02-03T11:26:28Z</time>
      </trkpt>
      <trkpt lat="45.63242" lon="4.38989">
        <ele>599</ele>
        <time>2025-02-03T11:26:44Z</time>
      </trkpt>
      <trkpt lat="45.63257" lon="4.38995">
        <ele>600</ele>
        <time>2025-02-03T11:27:05Z</time>
      </trkpt>
      <trkpt lat="45.6329" lon="4.39007">
        <ele>603</ele>
        <time>2025-02-03T11:27:50Z</time>
      </trkpt>
      <trkpt lat="45.63322" lon="4.39107">
        <ele>603</ele>
        <time>2025-02-03T11:29:33Z</time>
      </trkpt>
      <trkpt lat="45.63349" lon="4.39178">
        <ele>602</ele>
        <time>2025-02-03T11:30:48Z</time>
      </trkpt>
      <trkpt lat="45.6332" lon="4.39219">
        <ele>599</ele>
        <time>2025-02-03T11:31:42Z</time>
      </trkpt>
      <trkpt lat="45.6332" lon="4.39308">
        <ele>598</ele>
        <time>2025-02-03T11:33:05Z</time>
      </trkpt>
      <trkpt lat="45.63316" lon="4.39308">
        <ele>598</ele>
        <time>2025-02-03T11:33:11Z</time>
      </trkpt>
      <trkpt lat="45.63296" lon="4.39345">
        <ele>597</ele>
        <time>2025-02-03T11:33:54Z</time>
      </trkpt>
      <trkpt lat="45.63272" lon="4.3939">
        <ele>598</ele>
        <time>2025-02-03T11:34:47Z</time>
      </trkpt>
      <trkpt lat="45.63276" lon="4.39467">
        <ele>600</ele>
        <time>2025-02-03T11:35:59Z</time>
      </trkpt>
      <trkpt lat="45.63269" lon="4.39469">
        <ele>600</ele>
        <time>2025-02-03T11:36:09Z</time>
      </trkpt>
      <trkpt lat="45.63263" lon="4.39475">
        <ele>599</ele>
        <time>2025-02-03T11:36:19Z</time>
      </trkpt>
      <trkpt lat="45.6326" lon="4.39491">
        <ele>600</ele>
        <time>2025-02-03T11:36:34Z</time>
      </trkpt>
      <trkpt lat="45.63266" lon="4.39618">
        <ele>599</ele>
        <time>2025-02-03T11:38:33Z</time>
      </trkpt>
      <trkpt lat="45.63268" lon="4.39626">
        <ele>598</ele>
        <time>2025-02-03T11:38:41Z</time>
      </trkpt>
      <trkpt lat="45.63291" lon="4.39651">
        <ele>599</ele>
        <time>2025-02-03T11:39:19Z</time>
      </trkpt>
      <trkpt lat="45.63299" lon="4.39676">
        <ele>599</ele>
        <time>2025-02-03T11:39:45Z</time>
      </trkpt>
      <trkpt lat="45.63292" lon="4.39677">
        <ele>599</ele>
        <time>2025-02-03T11:39:54Z</time>
      </trkpt>
      <trkpt lat="45.63288" lon="4.39679">
        <ele>598</ele>
        <time>2025-02-03T11:40:00Z</time>
      </trkpt>
      <trkpt lat="45.63245" lon="4.39703">
        <ele>594</ele>
        <time>2025-02-03T11:41:02Z</time>
      </trkpt>
      <trkpt lat="45.63234" lon="4.39711">
        <ele>593</ele>
        <time>2025-02-03T11:41:18Z</time>
      </trkpt>
      <trkpt lat="45.63204" lon="4.39712">
        <ele>589</ele>
        <time>2025-02-03T11:41:58Z</time>
      </trkpt>
      <trkpt lat="45.63168" lon="4.39715">
        <ele>585</ele>
        <time>2025-02-03T11:42:46Z</time>
      </trkpt>
      <trkpt lat="45.63151" lon="4.39723">
        <ele>583</ele>
        <time>2025-02-03T11:43:10Z</time>
      </trkpt>
      <trkpt lat="45.6314" lon="4.39748">
        <ele>582</ele>
        <time>2025-02-03T11:43:38Z</time>
      </trkpt>
      <trkpt lat="45.63125" lon="4.39791">
        <ele>578</ele>
        <time>2025-02-03T11:44:23Z</time>
      </trkpt>
      <trkpt lat="45.6311" lon="4.39813">
        <ele>576</ele>
        <time>2025-02-03T11:44:51Z</time>
      </trkpt>
      <trkpt lat="45.62966" lon="4.39988">
        <ele>560</ele>
        <time>2025-02-03T11:49:03Z</time>
      </trkpt>
      <trkpt lat="45.62934" lon="4.40023">
        <ele>557</ele>
        <time>2025-02-03T11:49:57Z</time>
      </trkpt>
      <trkpt lat="45.62886" lon="4.40079">
        <ele>553</ele>
        <time>2025-02-03T11:51:20Z</time>
      </trkpt>
      <trkpt lat="45.62857" lon="4.401">
        <ele>551</ele>
        <time>2025-02-03T11:52:03Z</time>
      </trkpt>
      <trkpt lat="45.62825" lon="4.40116">
        <ele>549</ele>
        <time>2025-02-03T11:52:48Z</time>
      </trkpt>
      <trkpt lat="45.62818" lon="4.40114">
        <ele>549</ele>
        <time>2025-02-03T11:52:58Z</time>
      </trkpt>
      <trkpt lat="45.62816" lon="4.4012">
        <ele>548</ele>
        <time>2025-02-03T11:53:04Z</time>
      </trkpt>
      <trkpt lat="45.62796" lon="4.40174">
        <ele>546</ele>
        <time>2025-02-03T11:54:01Z</time>
      </trkpt>
      <trkpt lat="45.62742" lon="4.40333">
        <ele>541</ele>
        <time>2025-02-03T11:56:46Z</time>
      </trkpt>
      <trkpt lat="45.62717" lon="4.40444">
        <ele>536</ele>
        <time>2025-02-03T11:58:35Z</time>
      </trkpt>
      <trkpt lat="45.62701" lon="4.40527">
        <ele>534</ele>
        <time>2025-02-03T11:59:55Z</time>
      </trkpt>
      <trkpt lat="45.62703" lon="4.40551">
        <ele>534</ele>
        <time>2025-02-03T12:00:18Z</time>
      </trkpt>
      <trkpt lat="45.62704" lon="4.40558">
        <ele>534</ele>
        <time>2025-02-03T12:00:25Z</time>
      </trkpt>
      <trkpt lat="45.62709" lon="4.40597">
        <ele>534</ele>
        <time>2025-02-03T12:01:02Z</time>
      </trkpt>
      <trkpt lat="45.62707" lon="4.40607">
        <ele>535</ele>
        <time>2025-02-03T12:01:11Z</time>
      </trkpt>
      <trkpt lat="45.62706" lon="4.40608">
        <ele>535</ele>
        <time>2025-02-03T12:01:13Z</time>
      </trkpt>
      <trkpt lat="45.62702" lon="4.40619">
        <ele>536</ele>
        <time>2025-02-03T12:01:24Z</time>
      </trkpt>
      <trkpt lat="45.62677" lon="4.40646">
        <ele>538</ele>
        <time>2025-02-03T12:02:06Z</time>
      </trkpt>
      <trkpt lat="45.62661" lon="4.40668">
        <ele>539</ele>
        <time>2025-02-03T12:02:36Z</time>
      </trkpt>
      <trkpt lat="45.62635" lon="4.40707">
        <ele>541</ele>
        <time>2025-02-03T12:03:26Z</time>
      </trkpt>
      <trkpt lat="45.62616" lon="4.4074">
        <ele>542</ele>
        <time>2025-02-03T12:04:06Z</time>
      </trkpt>
      <trkpt lat="45.62608" lon="4.40759">
        <ele>542</ele>
        <time>2025-02-03T12:04:27Z</time>
      </trkpt>
      <trkpt lat="45.62603" lon="4.40777">
        <ele>543</ele>
        <time>2025-02-03T12:04:45Z</time>
      </trkpt>
      <trkpt lat="45.62595" lon="4.40808">
        <ele>544</ele>
        <time>2025-02-03T12:05:16Z</time>
      </trkpt>
      <trkpt lat="45.62575" lon="4.40905">
        <ele>548</ele>
        <time>2025-02-03T12:06:50Z</time>
      </trkpt>
      <trkpt lat="45.62568" lon="4.40926">
        <ele>549</ele>
        <time>2025-02-03T12:07:12Z</time>
      </trkpt>
      <trkpt lat="45.62564" lon="4.40945">
        <ele>550</ele>
        <time>2025-02-03T12:07:30Z</time>
      </trkpt>
      <trkpt lat="45.62557" lon="4.40967">
        <ele>551</ele>
        <time>2025-02-03T12:07:53Z</time>
      </trkpt>
      <trkpt lat="45.6255" lon="4.40987">
        <ele>552</ele>
        <time>2025-02-03T12:08:14Z</time>
      </trkpt>
      <trkpt lat="45.6254" lon="4.41018">
        <ele>553</ele>
        <time>2025-02-03T12:08:46Z</time>
      </trkpt>
      <trkpt lat="45.62535" lon="4.41031">
        <ele>554</ele>
        <time>2025-02-03T12:08:59Z</time>
      </trkpt>
      <trkpt lat="45.62533" lon="4.41023">
        <ele>553</ele>
        <time>2025-02-03T12:09:07Z</time>
      </trkpt>
      <trkpt lat="45.62535" lon="4.41031">
        <ele>554</ele>
        <time>2025-02-03T12:09:15Z</time>
      </trkpt>
      <trkpt lat="45.62532" lon="4.41051">
        <ele>554</ele>
        <time>2025-02-03T12:09:34Z</time>
      </trkpt>
      <trkpt lat="45.62524" lon="4.41079">
        <ele>555</ele>
        <time>2025-02-03T12:10:03Z</time>
      </trkpt>
      <trkpt lat="45.62517" lon="4.41098">
        <ele>556</ele>
        <time>2025-02-03T12:10:23Z</time>
      </trkpt>
      <trkpt lat="45.62504" lon="4.41128">
        <ele>556</ele>
        <time>2025-02-03T12:10:56Z</time>
      </trkpt>
      <trkpt lat="45.62486" lon="4.41164">
        <ele>557</ele>
        <time>2025-02-03T12:11:37Z</time>
      </trkpt>
      <trkpt lat="45.62484" lon="4.41168">
        <ele>557</ele>
        <time>2025-02-03T12:11:41Z</time>
      </trkpt>
      <trkpt lat="45.62478" lon="4.41191">
        <ele>556</ele>
        <time>2025-02-03T12:12:04Z</time>
      </trkpt>
      <trkpt lat="45.62475" lon="4.41213">
        <ele>556</ele>
        <time>2025-02-03T12:12:25Z</time>
      </trkpt>
      <trkpt lat="45.62467" lon="4.41213">
        <ele>556</ele>
        <time>2025-02-03T12:12:36Z</time>
      </trkpt>
      <trkpt lat="45.62436" lon="4.41265">
        <ele>555</ele>
        <time>2025-02-03T12:13:40Z</time>
      </trkpt>
      <trkpt lat="45.62417" lon="4.41308">
        <ele>553</ele>
        <time>2025-02-03T12:14:27Z</time>
      </trkpt>
      <trkpt lat="45.62409" lon="4.4134">
        <ele>553</ele>
        <time>2025-02-03T12:14:59Z</time>
      </trkpt>
      <trkpt lat="45.62405" lon="4.41369">
        <ele>552</ele>
        <time>2025-02-03T12:15:26Z</time>
      </trkpt>
      <trkpt lat="45.62396" lon="4.41393">
        <ele>552</ele>
        <time>2025-02-03T12:15:52Z</time>
      </trkpt>
      <trkpt lat="45.62383" lon="4.41419">
        <ele>551</ele>
        <time>2025-02-03T12:16:22Z</time>
      </trkpt>
      <trkpt lat="45.62363" lon="4.41441">
        <ele>549</ele>
        <time>2025-02-03T12:16:55Z</time>
      </trkpt>
      <trkpt lat="45.62355" lon="4.41448">
        <ele>548</ele>
        <time>2025-02-03T12:17:08Z</time>
      </trkpt>
      <trkpt lat="45.62348" lon="4.41456">
        <ele>548</ele>
        <time>2025-02-03T12:17:20Z</time>
      </trkpt>
      <trkpt lat="45.62343" lon="4.41488">
        <ele>545</ele>
        <time>2025-02-03T12:17:50Z</time>
      </trkpt>
      <trkpt lat="45.62333" lon="4.41509">
        <ele>544</ele>
        <time>2025-02-03T12:18:14Z</time>
      </trkpt>
      <trkpt lat="45.6233" lon="4.41521">
        <ele>543</ele>
        <time>2025-02-03T12:18:26Z</time>
      </trkpt>
      <trkpt lat="45.62325" lon="4.4153">
        <ele>543</ele>
        <time>2025-02-03T12:18:37Z</time>
      </trkpt>
      <trkpt lat="45.62318" lon="4.41539">
        <ele>542</ele>
        <time>2025-02-03T12:18:49Z</time>
      </trkpt>
      <trkpt lat="45.62298" lon="4.41552">
        <ele>540</ele>
        <time>2025-02-03T12:19:19Z</time>
      </trkpt>
      <trkpt lat="45.62295" lon="4.41558">
        <ele>539</ele>
        <time>2025-02-03T12:19:26Z</time>
      </trkpt>
      <trkpt lat="45.6229" lon="4.41566">
        <ele>539</ele>
        <time>2025-02-03T12:19:36Z</time>
      </trkpt>
      <trkpt lat="45.62283" lon="4.41588">
        <ele>537</ele>
        <time>2025-02-03T12:19:58Z</time>
      </trkpt>
      <trkpt lat="45.62278" lon="4.4161">
        <ele>535</ele>
        <time>2025-02-03T12:20:20Z</time>
      </trkpt>
      <trkpt lat="45.62269" lon="4.41635">
        <ele>533</ele>
        <time>2025-02-03T12:20:46Z</time>
      </trkpt>
      <trkpt lat="45.62263" lon="4.4169">
        <ele>531</ele>
        <time>2025-02-03T12:21:38Z</time>
      </trkpt>
      <trkpt lat="45.62248" lon="4.41766">
        <ele>529</ele>
        <time>2025-02-03T12:22:52Z</time>
      </trkpt>
      <trkpt lat="45.62245" lon="4.41766">
        <ele>528</ele>
        <time>2025-02-03T12:22:56Z</time>
      </trkpt>
      <trkpt lat="45.62235" lon="4.41767">
        <ele>527</ele>
        <time>2025-02-03T12:23:09Z</time>
      </trkpt>
      <trkpt lat="45.62224" lon="4.41773">
        <ele>526</ele>
        <time>2025-02-03T12:23:25Z</time>
      </trkpt>
      <trkpt lat="45.62177" lon="4.41812">
        <ele>521</ele>
        <time>2025-02-03T12:24:37Z</time>
      </trkpt>
      <trkpt lat="45.6212" lon="4.41851">
        <ele>515</ele>
        <time>2025-02-03T12:26:02Z</time>
      </trkpt>
      <trkpt lat="45.62072" lon="4.41754">
        <ele>513</ele>
        <time>2025-02-03T12:27:52Z</time>
      </trkpt>
      <trkpt lat="45.61812" lon="4.41659">
        <ele>492</ele>
        <time>2025-02-03T12:33:51Z</time>
      </trkpt>
      <trkpt lat="45.61809" lon="4.41676">
        <ele>491</ele>
        <time>2025-02-03T12:34:07Z</time>
      </trkpt>
      <trkpt lat="45.61805" lon="4.41749">
        <ele>488</ele>
        <time>2025-02-03T12:35:15Z</time>
      </trkpt>
      <trkpt lat="45.61813" lon="4.41777">
        <ele>488</ele>
        <time>2025-02-03T12:35:44Z</time>
      </trkpt>
      <trkpt lat="45.61811" lon="4.41798">
        <ele>486</ele>
        <time>2025-02-03T12:36:03Z</time>
      </trkpt>
      <trkpt lat="45.61779" lon="4.41867">
        <ele>478</ele>
        <time>2025-02-03T12:37:21Z</time>
      </trkpt>
      <trkpt lat="45.61768" lon="4.41912">
        <ele>473</ele>
        <time>2025-02-03T12:38:05Z</time>
      </trkpt>
      <trkpt lat="45.6176" lon="4.41958">
        <ele>471</ele>
        <time>2025-02-03T12:38:49Z</time>
      </trkpt>
      <trkpt lat="45.61745" lon="4.41981">
        <ele>469</ele>
        <time>2025-02-03T12:39:19Z</time>
      </trkpt>
      <trkpt lat="45.61742" lon="4.42001">
        <ele>469</ele>
        <time>2025-02-03T12:39:38Z</time>
      </trkpt>
      <trkpt lat="45.61745" lon="4.42021">
        <ele>469</ele>
        <time>2025-02-03T12:39:57Z</time>
      </trkpt>
      <trkpt lat="45.61752" lon="4.4204">
        <ele>469</ele>
        <time>2025-02-03T12:40:17Z</time>
      </trkpt>
      <trkpt lat="45.61769" lon="4.42091">
        <ele>468</ele>
        <time>2025-02-03T12:41:10Z</time>
      </trkpt>
    </trkseg>
  </trk>
</gpx>